Girard, GA (30426)

12:55 AM EST on December 22, 2014 (GMT -0500)
RAWS SRF2 - PORTABLE SC US | Change Station
CLOSE
Current Station
Personal Weather Station
Location: New Ellenton, SC
Elevation: 370 ft
Nearby Weather Stations

Elev 370 ft 33.36 °N, 81.68 °W | Updated 26 minutes ago

Overcast
Overcast
46 °F
Feels Like 46 °F
N
2
Wind Variable Wind from SE
Gusts 6.0 mph

Today
High -- | Low -- °F
--% Chance of Precip.
Yesterday
High -- | Low -- °F
Precip. -- in
7:26 AM 5:24 PM
New Moon, 0% visible
Pressure 30.11 in
Visibility 2.5 miles
Clouds Overcast 700 ft
Windchill 46 °F
Dew Point 46 °F
Humidity 100%
Rainfall 0.20 in
Snow Depth Not available.
UV 0 out of 12
Pollen 2.00 out of 12
Air Quality Not available.
Flu Activity Not available.
SPECI KAGS 220535Z AUTO 00000KT 2 1/2SM -RA BR OVC007 08/08 A3011 RMK AO2 CIG 005V010 P0003 T00830078

More Conditions Fewer Conditions

Pressure 30.11 in
Visibility 2.5 miles
Clouds Overcast 700 ft
Windchill 46 °F
Dew Point 46 °F
Humidity 100%
Rainfall 0.20 in
Snow Depth Not available.
UV 0 out of 12
Pollen 2.00 out of 12
Air Quality Not available.
Flu Activity Not available.
SPECI KAGS 220535Z AUTO 00000KT 2 1/2SM -RA BR OVC007 08/08 A3011 RMK AO2 CIG 005V010 P0003 T00830078

More Conditions Fewer Conditions

10-Day Weather Forecast

Almanac

Astronomy

Dec. 22, 2014 Rise Set
Actual Time
Civil Twilight
Nautical Twilight
Astronomical Twilight
Moon
Length of Visible Light
Length of Day
Tomorrow will be .
, % of the Moon is Illuminated

Today's Extremes

State Highs State Lows

Community

WunderPhotos

Upload Photos

1,779,549 photos uploaded!

WunderBlogs® & News

Nearby

Air Quality

  Air Quality AQ Index Pollutant
Not available.

Snow Depth

Station Depth Elevation

Earthquake Activity

City Distance Mag. Time & Date
Minimum magnitude displayed is 2.5.

Coastal Water Temperatures

Place Temperature

Nearby Weather Stations